createdAt,value
2023-09-23T00:00:19.667Z,97563.88
2023-09-23T00:01:22.975Z,97564.28
2023-09-23T00:02:24.954Z,97563.91
2023-09-23T00:03:27.943Z,97576.22
2023-09-23T00:04:30.806Z,97583.19
2023-09-23T00:05:37.050Z,97568.75
2023-09-23T00:06:39.119Z,97572.91
2023-09-23T00:07:44.119Z,97580.03
2023-09-23T00:08:46.258Z,97586.81
2023-09-23T00:09:49.499Z,97595.63
2023-09-23T00:10:52.284Z,97600.53
2023-09-23T00:11:56.546Z,97598.31
2023-09-23T00:12:58.438Z,97606.72
2023-09-23T00:14:02.238Z,97609.78
2023-09-23T00:15:06.660Z,97611.22
2023-09-23T00:16:10.737Z,97614.09
2023-09-23T00:18:18.690Z,97633.28
2023-09-23T00:19:21.080Z,97625.78
2023-09-23T00:20:24.129Z,97632.31
2023-09-23T00:21:26.217Z,97638.88
2023-09-23T00:22:29.029Z,97636.41
2023-09-23T00:23:32.190Z,97634.00
2023-09-23T00:24:35.143Z,97641.94
2023-09-23T00:25:37.073Z,97635.03
2023-09-23T00:26:39.869Z,97634.00
2023-09-23T00:27:43.198Z,97629.72
2023-09-23T00:28:47.872Z,97627.88
2023-09-23T00:29:50.374Z,97629.50
2023-09-23T00:30:52.368Z,97639.28
2023-09-23T00:31:57.004Z,97634.22
2023-09-23T00:33:01.966Z,97639.50
2023-09-23T00:34:06.085Z,97637.88
2023-09-23T00:35:11.518Z,97639.69
2023-09-23T00:36:15.198Z,97635.44
2023-09-23T00:37:17.019Z,97630.34
2023-09-23T00:38:21.141Z,97636.69
2023-09-23T00:39:23.122Z,97637.56
2023-09-23T00:40:30.766Z,97633.06
2023-09-23T00:41:32.637Z,97631.47
2023-09-23T00:42:35.790Z,97636.81
2023-09-23T00:43:39.161Z,97631.75
2023-09-23T00:44:41.132Z,97637.09
2023-09-23T00:45:47.409Z,97631.81
2023-09-23T00:46:49.259Z,97637.94
2023-09-23T00:47:53.249Z,97630.84
2023-09-23T00:48:56.195Z,97632.50
2023-09-23T00:49:59.040Z,97627.84
2023-09-23T00:51:01.155Z,97624.19
2023-09-23T00:52:06.900Z,97624.63
2023-09-23T00:53:09.372Z,97621.59
2023-09-23T00:54:15.056Z,97630.75
2023-09-23T00:55:17.411Z,97628.72
2023-09-23T00:56:24.394Z,97632.81
2023-09-23T00:57:26.572Z,97641.16
2023-09-23T00:58:29.598Z,97649.09
2023-09-23T00:59:36.250Z,97645.44
2023-09-23T01:00:44.915Z,97648.06
2023-09-23T01:01:50.072Z,97648.69
2023-09-23T01:02:56.968Z,97646.06
2023-09-23T01:03:59.449Z,97648.50
2023-09-23T01:05:02.438Z,97645.25
2023-09-23T01:06:06.136Z,97656.22
2023-09-23T01:07:10.671Z,97658.50
2023-09-23T01:08:13.071Z,97662.56
2023-09-23T01:09:22.242Z,97662.13
2023-09-23T01:10:24.849Z,97664.19
2023-09-23T01:11:28.656Z,97658.47
2023-09-23T01:12:31.500Z,97660.31
2023-09-23T01:13:33.370Z,97657.03
2023-09-23T01:14:37.504Z,97663.34
2023-09-23T01:15:41.439Z,97666.19
2023-09-23T01:16:44.844Z,97663.13
2023-09-23T01:17:49.120Z,97668.63
2023-09-23T01:18:52.263Z,97666.22
2023-09-23T01:19:54.458Z,97665.56
2023-09-23T01:20:59.801Z,97663.97
2023-09-23T01:22:02.840Z,97660.91
2023-09-23T01:23:06.463Z,97661.31
2023-09-23T01:24:09.933Z,97678.38
2023-09-23T01:25:11.861Z,97669.03
2023-09-23T01:26:14.757Z,97677.97
2023-09-23T01:27:19.385Z,97680.63
2023-09-23T01:28:22.253Z,97683.44
2023-09-23T01:29:24.669Z,97684.25
2023-09-23T01:30:28.084Z,97685.09
2023-09-23T01:31:30.659Z,97673.09
2023-09-23T01:32:41.515Z,97674.31
2023-09-23T01:33:43.568Z,97663.53
2023-09-23T01:34:46.603Z,97667.56
2023-09-23T01:35:49.659Z,97670.59
2023-09-23T01:38:38.362Z,97674.63
2023-09-23T01:39:42.546Z,97681.13
2023-09-23T01:40:45.528Z,97682.31
2023-09-23T01:41:47.442Z,97697.94
2023-09-23T01:42:52.459Z,97700.59
2023-09-23T01:43:55.333Z,97693.69
2023-09-23T01:44:59.139Z,97698.97
2023-09-23T01:46:05.243Z,97697.94
2023-09-23T01:47:08.477Z,97692.69
2023-09-23T01:48:10.428Z,97701.00
2023-09-23T01:49:13.345Z,97702.84
2023-09-23T01:50:15.382Z,97699.56
2023-09-23T01:51:18.745Z,97701.81
2023-09-23T01:52:20.982Z,97698.53
2023-09-23T01:53:25.358Z,97693.47
2023-09-23T01:54:28.522Z,97698.31
2023-09-23T01:55:31.643Z,97696.25
2023-09-23T01:56:35.208Z,97700.72
2023-09-23T01:57:38.396Z,97701.28
2023-09-23T01:58:40.307Z,97706.34
2023-09-23T01:59:43.396Z,97710.38
2023-09-23T02:00:45.535Z,97707.13
2023-09-23T02:01:50.091Z,97713.22
2023-09-23T02:02:55.173Z,97700.22
2023-09-23T02:03:58.961Z,97703.47
2023-09-23T02:05:01.056Z,97707.75
2023-09-23T02:06:04.044Z,97693.75
2023-09-23T02:07:06.524Z,97706.91
2023-09-23T02:08:09.436Z,97712.19
2023-09-23T02:09:11.439Z,97718.50
2023-09-23T02:10:16.569Z,97715.25
2023-09-23T02:11:19.447Z,97717.88
2023-09-23T02:12:22.279Z,97711.16
2023-09-23T02:13:24.162Z,97707.72
2023-09-23T02:14:27.001Z,97707.91
2023-09-23T02:15:29.596Z,97704.25
2023-09-23T02:16:32.460Z,97710.34
2023-09-23T02:17:37.410Z,97711.38
2023-09-23T02:18:40.909Z,97722.94
2023-09-23T02:19:43.542Z,97723.09
2023-09-23T02:20:46.455Z,97725.13
2023-09-23T02:21:49.003Z,97722.88
2023-09-23T02:22:54.304Z,97724.91
2023-09-23T02:23:57.119Z,97724.09
2023-09-23T02:24:59.922Z,97729.56
2023-09-23T02:26:03.178Z,97729.72
2023-09-23T02:27:06.138Z,97724.47
2023-09-23T02:28:09.021Z,97726.09
2023-09-23T02:29:11.922Z,97725.28
2023-09-23T02:30:14.499Z,97725.28
2023-09-23T02:31:17.454Z,97724.66
2023-09-23T02:32:19.430Z,97725.69
2023-09-23T02:33:22.815Z,97726.69
2023-09-23T02:34:24.762Z,97730.13
2023-09-23T02:35:27.604Z,97730.13
2023-09-23T02:36:29.707Z,97727.31
2023-09-23T02:37:32.538Z,97733.59
2023-09-23T02:38:34.378Z,97731.97
2023-09-23T02:39:37.201Z,97732.94
2023-09-23T02:40:41.513Z,97730.31
2023-09-23T02:41:47.317Z,97728.69
2023-09-23T02:42:52.859Z,97731.31
2023-09-23T02:43:56.732Z,97730.31
2023-09-23T02:44:59.453Z,97723.22
2023-09-23T02:46:02.845Z,97729.13
2023-09-23T02:47:05.488Z,97732.56
2023-09-23T02:48:09.779Z,97733.38
2023-09-23T02:49:14.212Z,97737.84
2023-09-23T02:50:18.859Z,97732.78
2023-09-23T02:51:20.956Z,97742.50
2023-09-23T02:52:23.775Z,97741.88
2023-09-23T02:53:25.621Z,97745.53
2023-09-23T02:54:28.608Z,97748.16
2023-09-23T02:55:30.459Z,97750.78
2023-09-23T02:56:33.566Z,97754.44
2023-09-23T02:57:37.891Z,97751.38
2023-09-23T02:58:41.366Z,97749.31
2023-09-23T02:59:45.852Z,97753.56
2023-09-23T03:00:58.080Z,97758.22
2023-09-23T03:02:02.082Z,97761.19
2023-09-23T03:03:10.256Z,97764.03
2023-09-23T03:04:18.355Z,97770.13
2023-09-23T03:05:26.386Z,97779.25
2023-09-23T03:06:31.341Z,97781.25
2023-09-23T03:07:36.134Z,97776.78
2023-09-23T03:08:39.478Z,97776.78
2023-09-23T03:09:48.728Z,97771.34
2023-09-23T03:10:53.270Z,97777.41
2023-09-23T03:11:57.037Z,97775.59
2023-09-23T03:13:06.794Z,97779.03
2023-09-23T03:14:13.347Z,97781.88
2023-09-23T03:15:15.750Z,97782.91
2023-09-23T03:16:29.245Z,97772.34
2023-09-23T03:17:32.387Z,97776.78
2023-09-23T03:18:37.822Z,97768.88
2023-09-23T03:19:39.768Z,97773.16
2023-09-23T03:20:43.108Z,97771.34
2023-09-23T03:21:46.536Z,97765.06
2023-09-23T03:22:50.644Z,97766.88
2023-09-23T03:23:54.243Z,97768.88
2023-09-23T03:24:58.122Z,97764.00
2023-09-23T03:26:01.537Z,97767.00
2023-09-23T03:27:04.551Z,97770.84
2023-09-23T03:28:07.819Z,97771.03
2023-09-23T03:29:10.793Z,97775.31
2023-09-23T03:30:13.892Z,97769.22
2023-09-23T03:31:18.710Z,97775.69
2023-09-23T03:32:25.231Z,97774.88
2023-09-23T03:33:28.752Z,97774.25
2023-09-23T03:34:33.494Z,97783.34
2023-09-23T03:35:37.299Z,97789.63
2023-09-23T03:36:40.093Z,97784.53
2023-09-23T03:37:42.981Z,97788.16
2023-09-23T03:38:45.309Z,97782.06
2023-09-23T03:39:48.427Z,97790.19
2023-09-23T03:40:52.410Z,97787.75
2023-09-23T03:41:57.644Z,97798.44
2023-09-23T03:43:02.220Z,97801.47
2023-09-23T03:44:08.535Z,97813.66
2023-09-23T03:45:11.387Z,97815.66
2023-09-23T03:46:15.995Z,97817.50
2023-09-23T03:47:18.237Z,97818.47
2023-09-23T03:48:21.568Z,97824.53
2023-09-23T03:49:23.582Z,97822.75
2023-09-23T03:50:26.950Z,97826.00
2023-09-23T03:51:29.186Z,97834.72
2023-09-23T03:52:32.193Z,97837.16
2023-09-23T03:53:34.183Z,97838.63
2023-09-23T03:54:37.262Z,97834.16
2023-09-23T03:55:40.294Z,97842.50
2023-09-23T03:56:43.241Z,97848.19
2023-09-23T03:57:45.702Z,97840.31
2023-09-23T03:58:48.810Z,97849.81
2023-09-23T03:59:52.318Z,97849.66
2023-09-23T04:00:57.097Z,97848.84
2023-09-23T04:01:59.105Z,97846.84
2023-09-23T04:03:02.245Z,97843.19
2023-09-23T04:04:04.524Z,97832.84
2023-09-23T04:05:08.122Z,97830.00
2023-09-23T04:06:10.074Z,97826.38
2023-09-23T04:07:15.420Z,97817.66
2023-09-23T04:08:17.275Z,97822.09
2023-09-23T04:09:20.115Z,97828.38
2023-09-23T04:10:24.747Z,97820.47
2023-09-23T04:11:27.822Z,97824.94
2023-09-23T04:12:29.749Z,97825.13
2023-09-23T04:13:32.939Z,97815.22
2023-09-23T04:14:35.280Z,97816.22
2023-09-23T04:15:38.550Z,97820.69
2023-09-23T04:16:41.349Z,97823.31
2023-09-23T04:17:43.242Z,97819.88
2023-09-23T04:18:47.390Z,97820.69
2023-09-23T04:19:50.046Z,97813.59
2023-09-23T04:20:54.563Z,97812.78
2023-09-23T04:21:57.275Z,97802.41
2023-09-23T04:23:00.356Z,97811.31
2023-09-23T04:24:02.521Z,97805.22
2023-09-23T04:25:07.118Z,97810.50
2023-09-23T04:26:09.604Z,97801.16
2023-09-23T04:27:12.715Z,97810.06
2023-09-23T04:28:14.881Z,97814.50
2023-09-23T04:29:21.044Z,97811.88
2023-09-23T04:30:23.387Z,97813.91
2023-09-23T04:31:27.581Z,97817.34
2023-09-23T04:32:29.788Z,97820.78
2023-09-23T04:33:32.909Z,97824.44
2023-09-23T04:34:37.155Z,97827.88
2023-09-23T04:35:39.109Z,97826.25
2023-09-23T04:36:41.877Z,97826.25
2023-09-23T04:37:43.850Z,97832.34
2023-09-23T04:38:46.760Z,97828.69
2023-09-23T04:39:48.735Z,97821.81
2023-09-23T04:40:50.774Z,97824.25
2023-09-23T04:41:53.597Z,97828.50
2023-09-23T04:42:55.428Z,97820.59
2023-09-23T04:43:58.578Z,97820.59
2023-09-23T04:45:00.412Z,97819.63
2023-09-23T04:46:03.451Z,97819.63
2023-09-23T04:47:07.221Z,97825.50
2023-09-23T04:48:11.169Z,97836.03
2023-09-23T04:49:13.072Z,97832.41
2023-09-23T04:50:18.004Z,97841.91
2023-09-23T04:51:19.838Z,97846.22
2023-09-23T04:52:22.687Z,97844.19
2023-09-23T04:53:24.781Z,97844.00
2023-09-23T04:54:27.600Z,97842.81
2023-09-23T04:55:29.620Z,97842.81
2023-09-23T04:56:32.451Z,97846.06
2023-09-23T04:57:34.854Z,97849.53
2023-09-23T04:58:37.654Z,97858.25
2023-09-23T04:59:39.828Z,97857.25
2023-09-23T05:00:42.629Z,97850.53
2023-09-23T05:01:45.075Z,97857.63
2023-09-23T05:02:51.465Z,97857.00
2023-09-23T05:03:53.718Z,97859.66
2023-09-23T05:04:55.738Z,97850.28
2023-09-23T05:05:58.718Z,97852.91
2023-09-23T05:07:01.880Z,97851.09
2023-09-23T05:08:06.304Z,97867.72
2023-09-23T05:09:09.600Z,97871.16
2023-09-23T05:10:12.816Z,97888.00
2023-09-23T05:11:14.775Z,97891.63
2023-09-23T05:12:17.628Z,97895.28
2023-09-23T05:13:19.484Z,97894.47
2023-09-23T05:14:22.379Z,97887.56
2023-09-23T05:15:25.584Z,97886.56
2023-09-23T05:16:29.564Z,97882.09
2023-09-23T05:17:31.848Z,97882.09
2023-09-23T05:18:37.132Z,97884.94
2023-09-23T05:19:43.457Z,97886.72
2023-09-23T05:20:48.872Z,97888.38
2023-09-23T05:21:51.234Z,97892.84
2023-09-23T05:22:54.135Z,97898.09
2023-09-23T05:23:57.380Z,97900.91
2023-09-23T05:25:00.227Z,97896.19
2023-09-23T05:26:02.078Z,97904.50
2023-09-23T05:27:05.500Z,97909.97
2023-09-23T05:28:09.997Z,97913.56
2023-09-23T05:29:13.205Z,97910.94
2023-09-23T05:30:15.592Z,97913.75
2023-09-23T05:31:18.899Z,97910.88
2023-09-23T05:32:21.741Z,97904.72
2023-09-23T05:33:24.779Z,97909.06
2023-09-23T05:34:28.413Z,97919.91
2023-09-23T05:35:31.228Z,97915.56
2023-09-23T05:36:33.852Z,97913.00
2023-09-23T05:37:36.821Z,97913.56
2023-09-23T05:38:38.707Z,97915.91
2023-09-23T05:39:46.752Z,97914.69
2023-09-23T05:40:48.817Z,97906.31
2023-09-23T05:41:52.502Z,97910.97
2023-09-23T05:42:54.468Z,97917.38
2023-09-23T05:43:57.365Z,97910.03
2023-09-23T05:44:59.180Z,97916.47
2023-09-23T05:46:05.599Z,97920.09
2023-09-23T05:47:07.632Z,97914.00
2023-09-23T05:48:10.988Z,97915.66
2023-09-23T05:49:13.205Z,97907.59
2023-09-23T05:50:19.070Z,97904.31
2023-09-23T05:51:21.034Z,97906.28
2023-09-23T05:52:23.849Z,97907.28
2023-09-23T05:53:25.753Z,97907.63
2023-09-23T05:54:28.553Z,97906.19
2023-09-23T05:55:32.225Z,97915.91
2023-09-23T05:56:35.078Z,97921.16
2023-09-23T05:57:39.526Z,97921.97
2023-09-23T05:58:42.339Z,97928.06
2023-09-23T05:59:44.208Z,97930.88
2023-09-23T06:00:49.025Z,97936.97
2023-09-23T06:01:50.908Z,97933.50
2023-09-23T06:02:53.883Z,97935.34
2023-09-23T06:03:56.997Z,97944.03
2023-09-23T06:05:02.258Z,97937.13
2023-09-23T06:06:06.696Z,97930.06
2023-09-23T06:07:08.602Z,97928.25
2023-09-23T06:08:11.557Z,97925.44
2023-09-23T06:09:13.420Z,97930.50
2023-09-23T06:10:16.431Z,97926.88
2023-09-23T06:11:18.411Z,97931.16
2023-09-23T06:12:21.259Z,97931.97
2023-09-23T06:13:23.219Z,97930.34
2023-09-23T06:14:26.511Z,97927.06
2023-09-23T06:15:29.589Z,97933.13
2023-09-23T06:16:32.460Z,97934.13
2023-09-23T06:17:34.370Z,97932.50
2023-09-23T06:18:37.362Z,97939.59
2023-09-23T06:19:39.239Z,97942.22
2023-09-23T06:20:42.024Z,97949.47
2023-09-23T06:21:45.249Z,97955.91
2023-09-23T06:22:49.175Z,97951.66
2023-09-23T06:23:51.635Z,97951.00
2023-09-23T06:24:55.193Z,97953.63
2023-09-23T06:25:57.258Z,97960.69
2023-09-23T06:27:00.078Z,97965.97
2023-09-23T06:28:02.008Z,97967.97
2023-09-23T06:29:05.696Z,97967.16
2023-09-23T06:30:08.622Z,97969.78
2023-09-23T06:31:13.455Z,97967.31
2023-09-23T06:32:15.289Z,97962.06
2023-09-23T06:33:18.119Z,97963.88
2023-09-23T06:34:20.075Z,97963.06
2023-09-23T06:35:22.913Z,97971.75
2023-09-23T06:36:24.731Z,97974.38
2023-09-23T06:37:28.924Z,97980.31
2023-09-23T06:38:30.886Z,97985.72
2023-09-23T06:39:33.788Z,97984.91
2023-09-23T06:40:35.637Z,97992.81
2023-09-23T06:41:38.410Z,98002.50
2023-09-23T06:42:40.793Z,97991.00
2023-09-23T06:43:43.784Z,97990.19
2023-09-23T06:44:46.413Z,97989.19
2023-09-23T06:45:55.170Z,97993.47
2023-09-23T06:46:57.102Z,97988.19
2023-09-23T06:48:00.135Z,97994.28
2023-09-23T06:49:02.302Z,97999.16
2023-09-23T06:50:06.147Z,98006.72
2023-09-23T06:51:07.984Z,98000.09
2023-09-23T06:52:10.813Z,98003.03
2023-09-23T06:53:14.088Z,98005.13
2023-09-23T06:54:15.955Z,98002.16
2023-09-23T06:55:19.049Z,98005.25
2023-09-23T06:56:20.945Z,98003.91
2023-09-23T06:57:23.775Z,98001.88
2023-09-23T06:58:25.630Z,97998.25
2023-09-23T06:59:28.574Z,98007.97
2023-09-23T07:00:30.503Z,98004.72
2023-09-23T07:01:34.498Z,98014.44
2023-09-23T07:02:36.597Z,98012.78
2023-09-23T07:03:39.530Z,98016.25
2023-09-23T07:04:41.625Z,98024.28
2023-09-23T07:05:44.691Z,98020.84
2023-09-23T07:06:47.254Z,98026.13
2023-09-23T07:07:50.330Z,98020.22
2023-09-23T07:08:53.550Z,98014.97
2023-09-23T07:09:56.473Z,98021.84
2023-09-23T07:10:58.405Z,98031.19
2023-09-23T07:12:01.253Z,98033.81
2023-09-23T07:13:05.092Z,98037.13
2023-09-23T07:14:08.009Z,98039.38
2023-09-23T07:15:10.706Z,98032.94
2023-09-23T07:16:15.237Z,98032.59
2023-09-23T07:17:18.935Z,98035.84
2023-09-23T07:18:21.853Z,98035.66
2023-09-23T07:19:23.697Z,98032.03
2023-09-23T07:20:26.689Z,98035.31
2023-09-23T07:21:28.708Z,98043.69
2023-09-23T07:22:31.482Z,98049.56
2023-09-23T07:23:34.084Z,98053.84
2023-09-23T07:24:39.721Z,98045.94
2023-09-23T07:25:43.307Z,98053.66
2023-09-23T07:26:46.124Z,98041.34
2023-09-23T07:27:48.218Z,98049.03
2023-09-23T07:28:51.590Z,98058.09
2023-09-23T07:29:53.534Z,98059.94
2023-09-23T07:30:57.248Z,98061.13
2023-09-23T07:31:59.352Z,98064.38
2023-09-23T07:33:02.514Z,98061.56
2023-09-23T07:34:04.459Z,98064.19
2023-09-23T07:35:08.752Z,98051.03
2023-09-23T07:36:11.653Z,98053.03
2023-09-23T07:37:15.296Z,98066.47
2023-09-23T07:38:17.188Z,98063.66
2023-09-23T07:39:19.987Z,98060.66
2023-09-23T07:40:23.235Z,98064.75
2023-09-23T07:41:26.114Z,98062.56
2023-09-23T07:42:27.996Z,98071.56
2023-09-23T07:43:30.861Z,98070.56
2023-09-23T07:44:32.719Z,98072.84
2023-09-23T07:45:35.613Z,98072.84
2023-09-23T07:46:38.145Z,98079.75
2023-09-23T07:47:41.094Z,98074.00
2023-09-23T07:48:42.985Z,98081.84
2023-09-23T07:49:46.040Z,98090.38
2023-09-23T07:50:48.028Z,98088.59
2023-09-23T07:51:50.826Z,98092.19
2023-09-23T07:52:53.081Z,98083.47
2023-09-23T07:53:55.905Z,98082.66
2023-09-23T07:54:57.710Z,98096.03
2023-09-23T07:56:01.870Z,98087.84
2023-09-23T07:57:03.799Z,98095.94
2023-09-23T07:58:07.318Z,98094.66
2023-09-23T07:59:09.602Z,98104.19
2023-09-23T08:00:13.428Z,98101.56
2023-09-23T08:01:15.303Z,98097.28
2023-09-23T08:02:18.162Z,98101.09
2023-09-23T08:03:20.071Z,98098.63
2023-09-23T08:04:22.944Z,98104.09
2023-09-23T08:05:25.390Z,98097.34
2023-09-23T08:06:28.499Z,98102.00
2023-09-23T08:07:30.637Z,98096.06
2023-09-23T08:08:33.577Z,98094.63
2023-09-23T08:09:35.474Z,98100.91
2023-09-23T08:10:38.297Z,98099.41
2023-09-23T08:11:41.501Z,98095.16
2023-09-23T08:12:44.302Z,98098.78
2023-09-23T08:13:46.348Z,98097.78
2023-09-23T08:14:49.290Z,98102.06
2023-09-23T08:15:51.200Z,98102.72
2023-09-23T08:16:54.090Z,98096.78
2023-09-23T08:17:56.033Z,98104.41
2023-09-23T08:18:58.854Z,98093.88
2023-09-23T08:20:00.887Z,98102.78
2023-09-23T08:21:03.884Z,98110.66
2023-09-23T08:22:05.813Z,98099.13
2023-09-23T08:23:09.802Z,98102.44
2023-09-23T08:24:11.692Z,98106.88
2023-09-23T08:25:14.720Z,98107.69
2023-09-23T08:26:16.862Z,98116.03
2023-09-23T08:27:21.377Z,98110.25
2023-09-23T08:28:24.055Z,98111.53
2023-09-23T08:29:27.201Z,98114.44
2023-09-23T08:30:29.210Z,98125.25
2023-09-23T08:31:32.542Z,98122.44
2023-09-23T08:32:34.497Z,98124.25
2023-09-23T08:33:37.844Z,98131.97
2023-09-23T08:34:39.715Z,98133.63
2023-09-23T08:35:43.629Z,98137.06
2023-09-23T08:36:45.483Z,98139.88
2023-09-23T08:37:48.336Z,98145.31
2023-09-23T08:38:50.172Z,98147.13
2023-09-23T08:39:53.412Z,98157.06
2023-09-23T08:40:55.358Z,98159.22
2023-09-23T08:41:59.207Z,98154.13
2023-09-23T08:43:05.455Z,98159.41
2023-09-23T08:44:08.648Z,98153.31
2023-09-23T08:45:11.076Z,98144.56
2023-09-23T08:46:13.276Z,98152.31
2023-09-23T08:47:16.321Z,98153.94
2023-09-23T08:48:18.565Z,98148.06
2023-09-23T08:49:23.032Z,98153.94
2023-09-23T08:50:25.315Z,98152.94
2023-09-23T08:51:28.641Z,98152.94
2023-09-23T08:52:31.833Z,98157.88
2023-09-23T08:53:34.583Z,98155.03
2023-09-23T08:54:37.606Z,98160.78
2023-09-23T08:55:39.556Z,98151.06
2023-09-23T08:56:42.333Z,98146.59
2023-09-23T08:57:44.301Z,98149.53
2023-09-23T08:58:50.168Z,98149.63
2023-09-23T08:59:52.332Z,98149.75
2023-09-23T09:00:55.562Z,98165.44
2023-09-23T09:01:57.691Z,98159.00
2023-09-23T09:03:00.532Z,98156.81
2023-09-23T09:04:02.361Z,98170.25
2023-09-23T09:05:06.033Z,98166.63
2023-09-23T09:06:16.390Z,98169.91
2023-09-23T09:07:19.178Z,98181.47
2023-09-23T09:08:21.051Z,98182.00
2023-09-23T09:09:24.703Z,98181.53
2023-09-23T09:10:26.831Z,98180.44
2023-09-23T09:11:29.790Z,98163.16
2023-09-23T09:12:32.480Z,98150.19
2023-09-23T09:13:36.653Z,98148.72
2023-09-23T09:14:40.042Z,98156.44
2023-09-23T09:15:42.864Z,98157.25
2023-09-23T09:16:45.044Z,98152.00
2023-09-23T09:17:47.941Z,98161.53
2023-09-23T10:00:26.233Z,98155.81
2023-09-23T10:01:29.831Z,98149.38
2023-09-23T10:02:34.108Z,98148.00
2023-09-23T10:03:37.877Z,98150.94
2023-09-23T10:04:47.407Z,98149.41
2023-09-23T10:05:51.584Z,98150.03
2023-09-23T10:06:56.530Z,98144.41
2023-09-23T10:08:21.187Z,98134.88
2023-09-23T10:09:28.358Z,98130.56
2023-09-23T10:10:33.809Z,98132.22
2023-09-23T10:11:36.842Z,98141.78
2023-09-23T10:12:38.705Z,98145.03
2023-09-23T10:13:41.541Z,98142.03
2023-09-23T10:14:53.573Z,98139.00
2023-09-23T10:16:06.103Z,98143.47
2023-09-23T10:17:09.270Z,98146.09
2023-09-23T10:18:13.390Z,98153.22
2023-09-23T10:19:16.800Z,98146.09
2023-09-23T10:20:20.479Z,98145.28
2023-09-23T10:21:23.273Z,98142.47
2023-09-23T10:22:26.422Z,98147.94
2023-09-23T10:23:28.403Z,98149.75
2023-09-23T10:24:34.561Z,98148.94
2023-09-23T10:25:40.880Z,98147.13
2023-09-23T10:26:45.304Z,98148.94
2023-09-23T10:27:57.611Z,98151.22
2023-09-23T10:29:01.343Z,98156.50
2023-09-23T10:30:05.471Z,98159.75
2023-09-23T10:31:10.792Z,98152.66
2023-09-23T10:32:15.440Z,98156.13
2023-09-23T10:33:19.063Z,98161.38
2023-09-23T10:34:20.988Z,98158.75
2023-09-23T10:35:24.967Z,98149.00
2023-09-23T10:36:27.522Z,98153.47
2023-09-23T10:37:30.760Z,98151.66
2023-09-23T10:38:38.916Z,98151.84
2023-09-23T10:39:44.601Z,98148.75
2023-09-23T10:40:51.529Z,98144.03
2023-09-23T10:41:53.357Z,98149.88
2023-09-23T10:42:55.167Z,98143.75
2023-09-23T10:43:57.964Z,98149.69
2023-09-23T10:45:00.433Z,98142.59
2023-09-23T10:46:03.836Z,98146.66
2023-09-23T10:47:07.156Z,98149.94
2023-09-23T10:48:10.195Z,98167.41
2023-09-23T10:49:12.151Z,98160.50
2023-09-23T10:50:15.327Z,98164.13
2023-09-23T10:51:17.239Z,98164.31
2023-09-23T10:52:20.282Z,98165.50
2023-09-23T10:53:22.754Z,98160.41
2023-09-23T10:54:26.170Z,98170.13
2023-09-23T10:55:27.994Z,98173.59
2023-09-23T10:56:31.195Z,98174.41
2023-09-23T10:57:33.069Z,98177.22
2023-09-23T10:58:37.435Z,98181.66
2023-09-23T10:59:39.502Z,98180.03
2023-09-23T11:00:43.413Z,98184.00
2023-09-23T11:01:46.658Z,98185.00
2023-09-23T11:02:54.323Z,98178.44
2023-09-23T11:03:56.493Z,98181.47
2023-09-23T11:04:59.357Z,98176.34
2023-09-23T11:06:01.184Z,98175.72
2023-09-23T11:07:04.765Z,98181.00
2023-09-23T11:08:07.114Z,98181.81
2023-09-23T11:09:09.001Z,98184.44
2023-09-23T11:10:15.374Z,98186.09
2023-09-23T11:11:18.507Z,98192.56
2023-09-23T11:12:21.334Z,98196.53
2023-09-23T11:13:23.174Z,98198.06
2023-09-23T11:14:28.855Z,98197.41
2023-09-23T11:15:31.697Z,98195.97
2023-09-23T11:16:34.723Z,98184.81
2023-09-23T11:17:36.744Z,98192.88
2023-09-23T11:18:40.998Z,98179.69
2023-09-23T11:19:52.919Z,98182.31
2023-09-23T11:20:55.723Z,98182.53
2023-09-23T11:21:57.843Z,98191.25
2023-09-23T11:23:03.432Z,98188.59
2023-09-23T11:24:06.046Z,98187.59
2023-09-23T11:25:11.243Z,98175.91
2023-09-23T11:26:13.126Z,98188.53
2023-09-23T11:27:15.947Z,98187.16
2023-09-23T11:28:18.795Z,98178.09
2023-09-23T11:29:22.798Z,98175.09
2023-09-23T11:30:24.959Z,98172.28
2023-09-23T11:31:27.799Z,98158.09
2023-09-23T11:32:29.789Z,98159.72
2023-09-23T11:33:32.682Z,98154.28
2023-09-23T11:34:37.646Z,98154.09
2023-09-23T11:35:40.582Z,98154.91
2023-09-23T11:36:42.499Z,98156.53
2023-09-23T11:37:47.968Z,98165.66
2023-09-23T11:38:50.764Z,98168.44
2023-09-23T11:39:53.632Z,98176.34
2023-09-23T11:40:55.800Z,98176.34
2023-09-23T11:41:59.408Z,98187.72
2023-09-23T11:43:01.312Z,98188.72
2023-09-23T11:44:04.140Z,98188.56
2023-09-23T11:45:06.958Z,98187.38
2023-09-23T11:46:09.975Z,98184.72
2023-09-23T11:47:12.048Z,98191.00
2023-09-23T11:48:14.983Z,98185.53
2023-09-23T11:49:16.842Z,98183.56
2023-09-23T11:50:21.133Z,98183.72
2023-09-23T11:51:23.076Z,98180.47
2023-09-23T11:52:26.465Z,98179.47
2023-09-23T11:53:28.442Z,98184.91
2023-09-23T11:54:31.381Z,98182.44
2023-09-23T11:55:34.306Z,98179.19
2023-09-23T11:56:40.071Z,98181.81
2023-09-23T11:57:42.056Z,98178.00
2023-09-23T11:58:54.643Z,98184.72
2023-09-23T12:01:58.390Z,98191.59
2023-09-23T12:03:00.444Z,98178.22
2023-09-23T12:04:03.633Z,98173.28
2023-09-23T12:05:07.646Z,98172.44
2023-09-23T12:06:12.038Z,98173.28
2023-09-23T12:07:15.353Z,98183.00
2023-09-23T12:08:18.224Z,98180.53
2023-09-23T12:09:20.108Z,98183.00
2023-09-23T12:10:23.725Z,98186.81
2023-09-23T12:11:25.597Z,98187.63
2023-09-23T12:12:31.183Z,98187.44
2023-09-23T12:13:33.165Z,98186.13
2023-09-23T12:14:36.024Z,98198.56
2023-09-23T12:15:37.921Z,98198.41
2023-09-23T12:16:42.555Z,98197.41
2023-09-23T12:17:45.219Z,98200.41
2023-09-23T12:18:49.395Z,98190.41
2023-09-23T12:19:51.626Z,98194.22
2023-09-23T12:20:54.800Z,98196.88
2023-09-23T12:21:58.025Z,98192.41
2023-09-23T12:23:02.015Z,98197.19
2023-09-23T12:24:04.947Z,98197.19
2023-09-23T12:25:08.354Z,98202.13
2023-09-23T12:26:11.015Z,98194.84
2023-09-23T12:27:14.367Z,98201.75
2023-09-23T12:28:16.257Z,98208.09
2023-09-23T12:29:19.093Z,98202.72
2023-09-23T12:30:20.967Z,98196.72
2023-09-23T12:31:25.175Z,98207.16
2023-09-23T12:32:27.067Z,98206.03
2023-09-23T12:33:30.052Z,98207.25
2023-09-23T12:34:51.470Z,98208.25
2023-09-23T12:35:53.376Z,98213.31
2023-09-23T12:36:56.170Z,98208.25
2023-09-23T12:37:59.385Z,98212.22
2023-09-23T12:39:02.291Z,98212.75
2023-09-23T12:40:05.441Z,98225.63
2023-09-23T12:41:08.247Z,98221.25
2023-09-23T12:42:10.725Z,98220.13
2023-09-23T12:43:13.533Z,98218.88
2023-09-23T12:44:28.561Z,98222.19
2023-09-23T12:45:31.647Z,98228.81
2023-09-23T12:46:33.507Z,98226.19
2023-09-23T12:48:41.470Z,98224.81
2023-09-23T12:49:44.924Z,98237.00
2023-09-23T12:50:46.865Z,98235.00
2023-09-23T12:51:49.683Z,98239.13
2023-09-23T12:52:51.829Z,98231.03
2023-09-23T12:53:56.009Z,98242.22
2023-09-23T12:54:57.832Z,98244.84
2023-09-23T12:55:59.717Z,98243.03
2023-09-23T12:57:02.499Z,98235.94
2023-09-23T12:58:06.500Z,98242.88
2023-09-23T12:59:09.327Z,98248.13
2023-09-23T13:00:12.760Z,98240.06
2023-09-23T13:01:15.761Z,98243.50
2023-09-23T13:02:17.730Z,98246.94
2023-09-23T13:03:20.682Z,98250.88
2023-09-23T13:04:34.625Z,98248.53
2023-09-23T13:05:37.598Z,98251.97
2023-09-23T13:06:40.040Z,98251.16
2023-09-23T13:07:42.830Z,98250.34
2023-09-23T13:08:44.970Z,98251.97
2023-09-23T13:09:49.741Z,98249.34
2023-09-23T13:10:51.605Z,98263.97
2023-09-23T13:11:54.662Z,98260.50